Time;durP1;ratioP1;P1;durP2;ratioP2;P2;SDS_P1;SDS_P2;PMS_P1;PMS_P2;Temp;Humidity;BMP_temperature;BMP_pressure;BME280_temperature;BME280_humidity;BME280_pressure;Samples;Min_cycle;Max_cycle;Signal;HPM_P1;HPM_P2
2023/09/13 00:02:08;;;;;;;3.80;1.27;;;;;;;19.47;100.00;100564.59;5054082;28;20599;-71
2023/09/13 00:04:35;;;;;;;2.80;1.10;;;;;;;19.50;100.00;100572.13;5053703;28;21013;-71
2023/09/13 00:07:02;;;;;;;7.17;1.87;;;;;;;19.52;100.00;100580.81;5053599;28;20461;-71
2023/09/13 00:09:28;;;;;;;3.00;1.10;;;;;;;19.57;100.00;100582.47;5053351;28;20926;-71
2023/09/13 00:11:56;;;;;;;4.37;2.40;;;;;;;19.64;100.00;100588.13;5053652;28;20434;-71
2023/09/13 00:14:23;;;;;;;3.53;1.13;;;;;;;19.67;100.00;100581.13;5053241;28;20534;-71
2023/09/13 00:16:50;;;;;;;3.30;1.40;;;;;;;19.74;100.00;100586.72;5053499;28;20455;-71
2023/09/13 00:19:17;;;;;;;3.23;1.40;;;;;;;19.76;100.00;100589.94;5053657;28;20849;-71
2023/09/13 00:21:44;;;;;;;4.10;2.00;;;;;;;19.80;100.00;100596.28;5053368;28;20578;-71
2023/09/13 00:24:11;;;;;;;3.27;1.30;;;;;;;19.84;100.00;100584.22;5053485;28;20476;-71
2023/09/13 00:26:37;;;;;;;2.70;1.23;;;;;;;19.87;100.00;100583.47;5053423;28;20520;-71
2023/09/13 00:29:05;;;;;;;3.90;1.57;;;;;;;19.88;100.00;100568.56;5053382;28;20930;-71
2023/09/13 00:31:32;;;;;;;4.30;2.17;;;;;;;19.93;100.00;100580.44;5056412;28;20461;-71
2023/09/13 00:33:58;;;;;;;6.43;1.63;;;;;;;19.94;100.00;100577.31;5057391;28;20972;-71
2023/09/13 00:36:25;;;;;;;2.90;1.23;;;;;;;19.97;100.00;100564.81;5057618;28;20545;-71
2023/09/13 00:38:52;;;;;;;2.80;1.10;;;;;;;19.97;100.00;100562.84;5057721;28;20848;-71
2023/09/13 00:41:18;;;;;;;3.30;1.33;;;;;;;20.02;100.00;100562.53;5057527;28;20561;-71
2023/09/13 00:43:45;;;;;;;4.40;1.93;;;;;;;20.04;100.00;100564.91;5057538;28;20452;-71
2023/09/13 00:46:14;;;;;;;3.67;1.47;;;;;;;20.05;100.00;100569.25;5057479;28;20508;-72
2023/09/13 00:48:42;;;;;;;4.47;1.77;;;;;;;20.08;100.00;100574.03;5057418;28;20446;-72
2023/09/13 00:51:10;;;;;;;4.20;1.57;;;;;;;20.08;100.00;100579.53;5057661;28;20511;-72
2023/09/13 00:53:37;;;;;;;3.57;1.53;;;;;;;20.11;100.00;100573.31;5057248;28;20525;-72
2023/09/13 00:56:04;;;;;;;3.90;1.43;;;;;;;20.15;100.00;100574.16;5056922;28;20549;-72
2023/09/13 00:58:32;;;;;;;3.90;1.57;;;;;;;20.17;100.00;100575.38;5056734;28;20536;-72
2023/09/13 01:00:59;;;;;;;6.43;1.70;;;;;;;20.21;100.00;100577.41;5057593;28;20550;-71
2023/09/13 01:03:27;;;;;;;4.57;1.70;;;;;;;20.22;100.00;100582.50;5056783;28;20521;-71
2023/09/13 01:05:55;;;;;;;4.80;1.83;;;;;;;20.24;100.00;100587.66;5056963;28;20545;-71
2023/09/13 01:08:22;;;;;;;4.20;1.77;;;;;;;20.24;100.00;100593.97;5056977;28;20449;-72
2023/09/13 01:10:49;;;;;;;3.20;1.47;;;;;;;20.22;100.00;100589.97;5057285;28;20442;-72
2023/09/13 01:13:16;;;;;;;3.03;1.40;;;;;;;20.20;100.00;100593.09;5057071;28;20537;-72
2023/09/13 01:15:47;;;;;;;4.13;2.07;;;;;;;20.23;100.00;100581.38;5056637;28;21052;-71
2023/09/13 01:18:22;;;;;;;3.20;1.30;;;;;;;20.23;100.00;100575.06;5056776;28;20429;-71
2023/09/13 01:21:09;;;;;;;2.63;1.20;;;;;;;20.22;100.00;100578.97;5056627;28;20422;-71
2023/09/13 01:24:00;;;;;;;3.53;1.60;;;;;;;20.15;100.00;100579.66;5056735;28;20422;-71
2023/09/13 01:27:10;;;;;;;3.20;1.20;;;;;;;20.04;100.00;100579.44;5056756;28;20458;-71
2023/09/13 01:29:41;;;;;;;3.27;1.37;;;;;;;19.85;100.00;100574.78;5036424;28;20456;-71
2023/09/13 01:32:08;;;;;;;3.27;1.30;;;;;;;19.67;100.00;100562.66;5056913;28;20423;-71
2023/09/13 01:34:34;;;;;;;3.77;1.50;;;;;;;19.65;100.00;100545.72;5056184;28;20929;-71
2023/09/13 01:37:01;;;;;;;4.03;1.63;;;;;;;19.58;100.00;100526.34;5056314;28;20856;-71
2023/09/13 01:39:27;;;;;;;3.83;1.50;;;;;;;19.53;100.00;100527.44;5056326;28;20530;-71
2023/09/13 01:41:57;;;;;;;4.63;1.20;;;;;;;19.54;100.00;100519.97;5055271;28;20486;-71
2023/09/13 01:44:27;;;;;;;3.27;1.37;;;;;;;19.52;100.00;100530.53;5056294;28;20453;-71
2023/09/13 01:46:56;;;;;;;3.40;1.33;;;;;;;19.48;100.00;100560.69;5056471;28;20458;-71
2023/09/13 01:49:24;;;;;;;3.27;1.57;;;;;;;19.39;100.00;100790.88;5056558;28;20450;-72
2023/09/13 01:51:51;;;;;;;4.13;1.70;;;;;;;19.23;100.00;100779.09;5056425;28;20438;-71
2023/09/13 01:54:34;;;;;;;3.77;1.60;;;;;;;19.21;100.00;100787.66;5056257;28;20431;-72
2023/09/13 01:57:01;;;;;;;2.93;1.20;;;;;;;19.15;100.00;100798.13;5056084;28;20464;-70
2023/09/13 01:59:27;;;;;;;3.07;1.20;;;;;;;18.92;100.00;100793.59;5055829;28;20500;-76
2023/09/13 02:01:55;;;;;;;2.80;0.90;;;;;;;18.62;100.00;100797.50;5056518;28;20477;-73
2023/09/13 02:04:22;;;;;;;2.77;0.97;;;;;;;18.56;100.00;100785.19;5055701;28;20444;-74
2023/09/13 02:06:49;;;;;;;2.10;0.47;;;;;;;18.43;100.00;100756.22;5055849;28;20457;-74
2023/09/13 02:09:16;;;;;;;2.27;0.50;;;;;;;18.27;100.00;100728.72;5055977;28;20541;-73
2023/09/13 02:11:43;;;;;;;4.00;0.80;;;;;;;18.22;100.00;100698.81;5056382;28;20438;-71
2023/09/13 02:14:09;;;;;;;2.20;0.60;;;;;;;18.29;100.00;100682.56;5055671;28;20525;-71
2023/09/13 02:16:36;;;;;;;2.03;0.40;;;;;;;18.32;100.00;100668.13;5055572;28;20894;-71
2023/09/13 02:19:04;;;;;;;2.00;0.40;;;;;;;18.29;100.00;100655.16;5055643;28;20434;-72
2023/09/13 02:21:31;;;;;;;2.87;0.60;;;;;;;18.28;100.00;100652.75;5055531;28;20996;-73
2023/09/13 02:23:58;;;;;;;2.20;0.50;;;;;;;18.32;100.00;100639.91;5055534;28;20517;-73
2023/09/13 02:26:26;;;;;;;2.40;0.53;;;;;;;18.36;100.00;100630.63;5055709;28;20494;-73
2023/09/13 02:28:53;;;;;;;3.40;0.60;;;;;;;18.41;100.00;100627.63;5055734;28;20495;-73
2023/09/13 02:31:23;;;;;;;4.57;0.67;;;;;;;18.50;100.00;100621.19;5055422;28;20462;-73
2023/09/13 02:33:50;;;;;;;2.50;0.67;;;;;;;18.59;100.00;100616.31;5055396;28;20473;-73
2023/09/13 02:36:18;;;;;;;2.40;0.40;;;;;;;18.65;100.00;100623.13;5055493;28;20494;-73
2023/09/13 02:38:44;;;;;;;2.70;0.60;;;;;;;18.69;100.00;100606.75;5055173;28;20456;-73
2023/09/13 02:41:11;;;;;;;2.77;0.53;;;;;;;18.61;100.00;100581.09;5054818;28;20882;-74
2023/09/13 02:43:39;;;;;;;2.70;0.60;;;;;;;18.61;100.00;100548.97;5055488;28;20512;-74
2023/09/13 02:46:06;;;;;;;103.73;4.83;;;;;;;18.60;100.00;100535.63;5055333;28;20553;-74
2023/09/13 02:48:32;;;;;;;5.60;0.80;;;;;;;18.59;100.00;100544.97;5055033;28;20434;-74
2023/09/13 02:50:59;;;;;;;3.50;0.40;;;;;;;18.59;100.00;100539.50;5055335;28;20442;-73
2023/09/13 02:53:27;;;;;;;3.90;0.70;;;;;;;18.49;100.00;100518.09;5054741;28;20434;-73
2023/09/13 02:55:54;;;;;;;4.17;0.60;;;;;;;18.46;100.00;100499.59;5054441;28;20892;-74
2023/09/13 02:58:20;;;;;;;2.30;0.60;;;;;;;18.44;100.00;100474.47;5054776;28;20541;-73
2023/09/13 03:00:47;;;;;;;3.07;1.07;;;;;;;18.46;100.00;100455.72;5054541;28;20463;-73
2023/09/13 03:03:13;;;;;;;3.33;0.93;;;;;;;18.48;100.00;100450.69;5054392;28;21019;-73
2023/09/13 03:05:40;;;;;;;140.60;15.13;;;;;;;18.48;100.00;100454.22;5054652;28;20953;-74
2023/09/13 03:08:07;;;;;;;3.57;0.90;;;;;;;18.52;100.00;100465.28;5054803;28;20441;-73
2023/09/13 03:10:37;;;;;;;3.20;1.03;;;;;;;18.48;100.00;100445.97;5054848;28;20811;-73
2023/09/13 03:13:03;;;;;;;3.43;0.83;;;;;;;18.46;100.00;100452.97;5054397;28;20446;-72
2023/09/13 03:15:33;;;;;;;3.37;1.33;;;;;;;18.44;100.00;100478.03;5054479;28;20521;-72
2023/09/13 03:18:00;;;;;;;2.90;0.80;;;;;;;18.41;100.00;100465.81;5054282;28;20449;-73
2023/09/13 03:20:27;;;;;;;2.27;0.80;;;;;;;18.40;100.00;100464.22;5054704;28;20446;-73
2023/09/13 03:22:55;;;;;;;5.37;1.57;;;;;;;18.41;100.00;100473.25;5053983;28;20855;-74
2023/09/13 03:25:21;;;;;;;2.67;0.77;;;;;;;18.49;100.00;100476.94;5054231;28;20448;-74
2023/09/13 03:27:50;;;;;;;2.40;0.70;;;;;;;18.52;100.00;100485.25;5054260;28;20442;-74
2023/09/13 03:30:16;;;;;;;2.40;0.83;;;;;;;18.53;100.00;100483.31;5054266;28;20845;-74
2023/09/13 03:32:43;;;;;;;3.03;0.97;;;;;;;18.55;100.00;100479.06;5054107;28;20452;-74
2023/09/13 03:35:10;;;;;;;4.53;0.90;;;;;;;18.57;100.00;100471.25;5054152;28;20525;-74
2023/09/13 03:37:36;;;;;;;2.80;1.03;;;;;;;18.57;100.00;100471.25;5054001;28;20458;-74
2023/09/13 03:40:05;;;;;;;2.30;0.70;;;;;;;18.59;100.00;100468.16;5053759;28;20445;-73
2023/09/13 03:42:31;;;;;;;2.30;0.70;;;;;;;18.60;100.00;100475.25;5053830;28;20573;-73
2023/09/13 03:44:59;;;;;;;2.50;0.90;;;;;;;18.56;100.00;100460.66;5053799;28;20451;-73
2023/09/13 03:47:26;;;;;;;2.10;0.60;;;;;;;18.50;100.00;100451.88;5053738;28;20466;-73
2023/09/13 03:49:53;;;;;;;2.07;0.50;;;;;;;18.51;100.00;100439.00;5053864;28;20438;-73
2023/09/13 03:52:19;;;;;;;3.03;1.00;;;;;;;18.53;100.00;100439.41;5053584;28;20438;-73
2023/09/13 03:54:46;;;;;;;3.03;0.90;;;;;;;18.51;100.00;100439.00;5053848;28;20477;-73
2023/09/13 03:57:12;;;;;;;2.90;0.97;;;;;;;18.49;100.00;100430.31;5053410;28;21061;-73
2023/09/13 03:59:39;;;;;;;2.67;0.90;;;;;;;18.48;100.00;100417.75;5053451;28;20454;-73
2023/09/13 04:02:07;;;;;;;3.03;0.73;;;;;;;18.45;100.00;100413.78;5053627;28;20860;-73
2023/09/13 04:04:34;;;;;;;2.90;0.87;;;;;;;18.38;100.00;100433.63;5053170;28;20537;-74
2023/09/13 04:07:00;;;;;;;3.87;1.20;;;;;;;18.35;100.00;100425.31;5052923;28;20822;-73
2023/09/13 04:09:27;;;;;;;2.37;0.67;;;;;;;18.33;100.00;100430.38;5053327;28;20434;-72
2023/09/13 04:11:53;;;;;;;2.53;0.80;;;;;;;18.35;100.00;100431.59;5053552;28;20430;-73
2023/09/13 04:14:20;;;;;;;5.00;1.20;;;;;;;18.34;100.00;100429.22;5053621;28;20438;-73
2023/09/13 04:16:46;;;;;;;2.70;0.90;;;;;;;18.35;100.00;100430.78;5053420;28;20470;-73
2023/09/13 04:19:14;;;;;;;2.20;0.70;;;;;;;18.40;100.00;100445.03;5053503;28;20526;-73
2023/09/13 04:21:41;;;;;;;2.60;0.80;;;;;;;18.44;100.00;100450.59;5053373;28;20442;-73
2023/09/13 04:24:08;;;;;;;2.30;0.73;;;;;;;18.46;100.00;100452.97;5053268;28;20525;-73
2023/09/13 04:26:35;;;;;;;2.47;0.97;;;;;;;18.43;100.00;100446.25;5053686;28;20465;-73
2023/09/13 04:29:02;;;;;;;2.20;0.70;;;;;;;18.45;100.00;100454.13;5053832;28;20528;-73
2023/09/13 04:31:29;;;;;;;2.63;0.60;;;;;;;18.47;100.00;100449.09;5053524;28;20446;-73
2023/09/13 04:33:56;;;;;;;3.20;1.10;;;;;;;18.47;100.00;100451.84;5053363;28;20458;-73
2023/09/13 04:36:24;;;;;;;3.40;1.43;;;;;;;18.43;100.00;100450.97;5053323;28;20494;-73
2023/09/13 04:38:51;;;;;;;3.03;1.10;;;;;;;18.39;100.00;100451.66;5053399;28;20442;-73
2023/09/13 04:41:18;;;;;;;3.00;0.93;;;;;;;18.36;100.00;100454.31;5053375;28;20441;-73
2023/09/13 04:43:44;;;;;;;3.40;1.10;;;;;;;18.33;100.00;100452.31;5053201;28;20488;-73
2023/09/13 04:46:11;;;;;;;2.27;0.80;;;;;;;18.30;100.00;100458.50;5053315;28;20565;-73
2023/09/13 04:48:38;;;;;;;2.87;1.20;;;;;;;18.27;100.00;100460.00;5053239;28;20473;-73
2023/09/13 04:51:04;;;;;;;3.03;1.27;;;;;;;18.25;100.00;100467.78;5053186;28;20446;-73
2023/09/13 04:53:34;;;;;;;2.60;1.10;;;;;;;18.23;100.00;100466.53;5053189;28;20447;-73
2023/09/13 04:56:01;;;;;;;2.67;1.23;;;;;;;18.22;100.00;100473.19;5053106;28;20458;-73
2023/09/13 04:58:28;;;;;;;2.63;1.20;;;;;;;18.25;100.00;100481.50;5052911;28;20454;-73
2023/09/13 05:00:55;;;;;;;4.53;1.40;;;;;;;18.25;100.00;100478.75;5053250;28;20427;-73
2023/09/13 05:03:21;;;;;;;5.10;2.07;;;;;;;18.21;100.00;100485.31;5053022;28;20517;-73
2023/09/13 05:05:48;;;;;;;4.53;2.03;;;;;;;18.21;100.00;100491.59;5052600;28;20468;-73
2023/09/13 05:08:15;;;;;;;3.60;1.67;;;;;;;18.20;100.00;100500.19;5053148;28;20441;-73
2023/09/13 05:10:45;;;;;;;5.50;1.60;;;;;;;18.21;100.00;100507.25;5052806;28;20442;-73
2023/09/13 05:13:12;;;;;;;9.17;2.50;;;;;;;18.21;100.00;100508.03;5053254;28;20466;-73
2023/09/13 05:15:43;;;;;;;4.23;2.10;;;;;;;18.24;100.00;100507.34;5053032;28;20474;-73
2023/09/13 05:18:09;;;;;;;3.13;1.50;;;;;;;18.28;100.00;100510.16;5056551;28;20418;-73
2023/09/13 05:20:36;;;;;;;3.73;1.97;;;;;;;18.32;100.00;100516.50;5056721;28;20452;-73
2023/09/13 05:23:03;;;;;;;4.90;2.20;;;;;;;18.32;100.00;100524.75;5057072;28;20508;-74
2023/09/13 05:25:29;;;;;;;3.50;1.80;;;;;;;18.39;100.00;100522.97;5056468;28;20442;-73
2023/09/13 05:27:57;;;;;;;4.73;2.63;;;;;;;18.43;100.00;100527.75;5056616;28;20533;-73
2023/09/13 05:30:25;;;;;;;6.43;1.80;;;;;;;18.47;100.00;100529.44;5056634;28;20446;-73
2023/09/13 05:32:51;;;;;;;4.07;1.80;;;;;;;18.53;100.00;100527.19;5056522;28;20434;-73
2023/09/13 05:35:18;;;;;;;7.30;2.60;;;;;;;18.58;100.00;100532.41;5056968;28;20469;-73
2023/09/13 05:37:45;;;;;;;4.80;2.40;;;;;;;18.64;100.00;100531.00;5056503;28;21025;-73
2023/09/13 05:40:12;;;;;;;4.70;2.33;;;;;;;18.66;100.00;100523.19;5056330;28;20517;-73
2023/09/13 05:42:39;;;;;;;4.73;2.40;;;;;;;18.68;100.00;100518.13;5056244;28;20482;-73
2023/09/13 05:45:08;;;;;;;14.43;3.50;;;;;;;18.74;100.00;100510.47;5056267;28;20521;-75
2023/09/13 05:47:35;;;;;;;6.10;3.40;;;;;;;18.77;100.00;100518.78;5056247;28;20465;-73
2023/09/13 05:50:01;;;;;;;5.63;3.00;;;;;;;18.81;100.00;100513.34;5056230;28;20442;-70
2023/09/13 05:52:28;;;;;;;4.80;2.30;;;;;;;18.84;100.00;100518.13;5055914;28;20994;-74
2023/09/13 05:54:55;;;;;;;7.70;3.00;;;;;;;18.88;100.00;100511.56;5056040;28;20445;-74
2023/09/13 05:57:22;;;;;;;5.57;2.90;;;;;;;18.93;100.00;100515.19;5056141;28;20498;-74
2023/09/13 05:59:48;;;;;;;5.70;1.77;;;;;;;18.99;100.00;100516.50;5055566;28;20512;-74
2023/09/13 06:02:16;;;;;;;3.90;1.50;;;;;;;19.04;100.00;100518.97;5056039;28;20791;-74
2023/09/13 06:04:43;;;;;;;4.10;1.97;;;;;;;19.02;100.00;100510.28;5055955;28;20442;-74
2023/09/13 06:07:10;;;;;;;4.67;2.20;;;;;;;19.01;100.00;100508.72;5055818;28;21004;-74
2023/09/13 06:09:36;;;;;;;3.93;2.10;;;;;;;19.03;100.00;100515.41;5055516;28;20474;-74
2023/09/13 06:12:03;;;;;;;3.73;2.10;;;;;;;19.08;100.00;100509.66;5055852;28;20473;-74
2023/09/13 06:14:31;;;;;;;4.07;2.10;;;;;;;19.13;100.00;100520.34;5055397;28;20431;-74
2023/09/13 06:16:58;;;;;;;5.10;2.10;;;;;;;19.19;100.00;100515.38;5055632;28;20950;-74
2023/09/13 06:19:26;;;;;;;4.10;2.13;;;;;;;19.27;100.00;100521.81;5055668;28;20528;-74
2023/09/13 06:21:52;;;;;;;4.47;2.67;;;;;;;19.33;100.00;100525.84;5055627;28;20525;-74
2023/09/13 06:24:19;;;;;;;4.50;2.87;;;;;;;19.29;100.00;100534.00;5055650;28;20482;-73
2023/09/13 06:26:46;;;;;;;4.63;2.33;;;;;;;19.27;100.00;100525.34;5055430;28;20454;-74
2023/09/13 06:29:12;;;;;;;4.00;1.83;;;;;;;19.31;100.00;100528.97;5054629;28;21005;-73
2023/09/13 06:31:39;;;;;;;6.03;3.50;;;;;;;19.30;100.00;100535.63;5055413;28;20953;-73
2023/09/13 06:34:06;;;;;;;6.60;2.60;;;;;;;19.32;100.00;100535.25;5055724;28;20438;-74
2023/09/13 06:36:34;;;;;;;7.17;3.00;;;;;;;19.26;100.00;100533.94;5055332;28;20556;-74
2023/09/13 06:39:01;;;;;;;5.60;3.07;;;;;;;19.24;100.00;100539.00;5055263;28;20453;-73
2023/09/13 06:41:28;;;;;;;6.17;2.53;;;;;;;19.24;100.00;100531.56;5055259;28;20481;-73
2023/09/13 06:43:55;;;;;;;4.97;2.63;;;;;;;19.28;100.00;100540.66;5055029;28;20478;-73
2023/09/13 06:46:22;;;;;;;4.53;2.40;;;;;;;19.29;100.00;100539.50;5054958;28;20574;-74
2023/09/13 06:48:49;;;;;;;5.93;2.43;;;;;;;19.32;100.00;100544.28;5055097;28;20521;-73
2023/09/13 06:51:16;;;;;;;5.43;2.97;;;;;;;19.33;100.00;100540.38;5055518;28;20453;-74
2023/09/13 06:53:44;;;;;;;4.90;3.17;;;;;;;19.35;100.00;100540.03;5055339;28;20438;-74
2023/09/13 06:56:10;;;;;;;4.90;2.40;;;;;;;19.38;100.00;100548.31;5054757;28;20470;-74
2023/09/13 06:58:37;;;;;;;5.53;3.10;;;;;;;19.45;100.00;100544.13;5054697;28;20456;-74
2023/09/13 07:01:04;;;;;;;6.43;2.77;;;;;;;19.53;100.00;100546.66;5055500;28;20840;-74
2023/09/13 07:04:11;;;;;;;4.53;2.93;;;;;;;19.56;100.00;100550.63;5055155;28;20853;-74
2023/09/13 07:06:38;;;;;;;5.63;3.70;;;;;;;19.56;100.00;100554.16;5054417;28;20466;-74
2023/09/13 07:09:06;;;;;;;6.80;3.63;;;;;;;19.56;100.00;100554.16;5054850;28;20477;-75
2023/09/13 07:11:33;;;;;;;5.60;2.83;;;;;;;19.52;100.00;100564.31;5054708;28;20430;-74
2023/09/13 07:14:00;;;;;;;4.10;2.13;;;;;;;19.51;100.00;100562.69;5054707;28;20496;-74
2023/09/13 07:16:26;;;;;;;4.43;2.43;;;;;;;19.52;100.00;100569.81;5054475;28;20469;-74
2023/09/13 07:18:54;;;;;;;5.13;3.37;;;;;;;19.51;100.00;100568.19;5054554;28;20521;-75
2023/09/13 07:21:21;;;;;;;5.83;3.00;;;;;;;19.51;100.00;100570.16;5054254;28;20453;-72
2023/09/13 07:23:48;;;;;;;5.27;2.37;;;;;;;19.52;100.00;100575.31;5054270;28;20486;-71
2023/09/13 07:26:16;;;;;;;5.47;3.33;;;;;;;19.50;100.00;100576.81;5054727;28;20461;-75
2023/09/13 07:28:42;;;;;;;6.47;3.30;;;;;;;19.46;100.00;100573.19;5054660;28;20439;-74
2023/09/13 07:31:10;;;;;;;6.17;3.10;;;;;;;19.45;100.00;100579.84;5055376;28;20450;-75
2023/09/13 07:33:37;;;;;;;4.83;2.90;;;;;;;19.44;100.00;100584.56;5054793;28;20502;-72
2023/09/13 07:36:04;;;;;;;3.57;1.90;;;;;;;19.48;100.00;100576.38;5054369;28;20470;-74
2023/09/13 07:38:30;;;;;;;5.20;2.57;;;;;;;19.49;100.00;100587.00;5055538;28;20438;-73
2023/09/13 07:40:57;;;;;;;7.00;3.03;;;;;;;19.53;100.00;100581.59;5053920;28;20976;-74
2023/09/13 07:43:25;;;;;;;4.60;2.37;;;;;;;19.59;100.00;100580.13;5054052;28;20852;-74
2023/09/13 07:45:52;;;;;;;5.43;3.07;;;;;;;19.60;100.00;100582.53;5054072;28;20512;-74
2023/09/13 07:48:19;;;;;;;3.70;2.20;;;;;;;19.64;100.00;100585.38;5053825;28;20491;-74
2023/09/13 07:50:46;;;;;;;4.67;2.27;;;;;;;19.68;100.00;100588.97;5054188;28;20470;-74
2023/09/13 07:53:13;;;;;;;3.80;2.47;;;;;;;19.73;100.00;100590.66;5053877;28;20440;-74
2023/09/13 07:55:40;;;;;;;6.03;2.37;;;;;;;19.68;100.00;100588.19;5054194;28;20431;-74
2023/09/13 07:58:08;;;;;;;4.30;2.20;;;;;;;19.71;100.00;100591.00;5053453;28;20937;-74
2023/09/13 08:00:36;;;;;;;5.40;3.00;;;;;;;19.79;100.00;100592.75;5054058;28;20435;-74
2023/09/13 08:03:03;;;;;;;4.30;2.40;;;;;;;19.86;100.00;100586.59;5053401;28;20482;-74
2023/09/13 08:05:30;;;;;;;6.03;2.63;;;;;;;19.80;100.00;100596.28;5053551;28;20457;-74
2023/09/13 08:07:58;;;;;;;5.87;2.83;;;;;;;19.83;100.00;100610.13;5053755;28;20495;-74
2023/09/13 08:10:25;;;;;;;4.10;2.40;;;;;;;19.88;100.00;100604.31;5054342;28;20462;-74
2023/09/13 08:12:52;;;;;;;4.80;2.60;;;;;;;19.97;100.00;100617.03;5053804;28;20477;-74
2023/09/13 08:15:18;;;;;;;4.20;2.17;;;;;;;19.93;100.00;100608.72;5054109;28;20450;-71
2023/09/13 08:17:46;;;;;;;4.10;2.20;;;;;;;19.92;100.00;100620.84;5053767;28;20541;-72
2023/09/13 08:20:13;;;;;;;9.10;2.57;;;;;;;19.97;100.00;100614.28;5054166;28;21010;-74
2023/09/13 08:22:40;;;;;;;5.63;2.30;;;;;;;19.99;100.00;100618.25;5053807;28;20525;-74
2023/09/13 08:25:07;;;;;;;3.90;2.10;;;;;;;20.04;100.00;100622.66;5053941;28;20585;-74
2023/09/13 08:27:34;;;;;;;4.40;2.00;;;;;;;20.06;100.00;100626.66;5053771;28;20497;-75
2023/09/13 08:30:01;;;;;;;3.73;1.73;;;;;;;20.04;100.00;100614.41;5053780;28;20457;-75
2023/09/13 08:32:28;;;;;;;4.43;2.10;;;;;;;20.10;100.00;100619.25;5053582;28;20442;-74
2023/09/13 08:34:56;;;;;;;3.30;1.87;;;;;;;20.18;100.00;100628.41;5053296;28;20945;-74
2023/09/13 08:37:23;;;;;;;3.40;1.37;;;;;;;20.22;100.00;100634.78;5053716;28;20825;-75
2023/09/13 08:39:49;;;;;;;3.37;1.50;;;;;;;20.25;100.00;100634.06;5053890;28;20444;-75
2023/09/13 08:42:16;;;;;;;2.70;0.90;;;;;;;20.14;100.00;100633.88;5053329;28;20448;-74
2023/09/13 08:44:44;;;;;;;2.60;1.17;;;;;;;20.10;100.00;100632.22;5053597;28;20538;-74
2023/09/13 08:47:12;;;;;;;11.23;1.90;;;;;;;20.16;100.00;100625.25;5052905;28;20458;-74
2023/09/13 08:49:39;;;;;;;3.10;1.33;;;;;;;20.22;100.00;100636.75;5053267;28;20437;-75
2023/09/13 08:52:08;;;;;;;2.97;1.30;;;;;;;20.22;100.00;100640.28;5055063;28;20442;-74
2023/09/13 08:54:36;;;;;;;3.53;1.43;;;;;;;20.17;100.00;100644.13;5056906;28;21001;-74
2023/09/13 08:57:04;;;;;;;2.47;1.10;;;;;;;20.10;100.00;100643.22;5057584;28;20469;-74
2023/09/13 08:59:32;;;;;;;2.90;1.33;;;;;;;20.01;100.00;100645.38;5056721;28;20487;-74
2023/09/13 09:02:01;;;;;;;4.03;1.37;;;;;;;19.96;100.00;100640.19;5057504;28;20532;-74
2023/09/13 09:04:28;;;;;;;4.03;1.20;;;;;;;19.94;100.00;100656.25;5056665;28;21031;-74
2023/09/13 09:06:55;;;;;;;2.87;1.20;;;;;;;19.94;100.00;100646.06;5057302;28;20556;-74
2023/09/13 09:09:28;;;;;;;2.53;1.07;;;;;;;19.97;100.00;100648.09;5057384;28;20442;-74
2023/09/13 09:11:59;;;;;;;2.73;1.00;;;;;;;19.95;100.00;100649.59;5057003;28;20519;-74
2023/09/13 09:14:31;;;;;;;2.83;1.23;;;;;;;19.94;100.00;100662.53;5057165;28;20514;-74
2023/09/13 09:16:59;;;;;;;2.90;1.30;;;;;;;19.89;100.00;100662.84;5056750;28;20458;-74
2023/09/13 09:19:26;;;;;;;2.90;1.13;;;;;;;19.86;100.00;100669.84;5056573;28;20446;-74
2023/09/13 09:21:53;;;;;;;4.50;1.80;;;;;;;19.91;100.00;100677.00;5056809;28;20495;-74
2023/09/13 09:24:19;;;;;;;4.00;1.20;;;;;;;19.95;100.00;100680.63;5056880;28;20481;-74
2023/09/13 09:26:48;;;;;;;3.00;1.23;;;;;;;20.04;100.00;100685.91;5056341;28;20523;-74
2023/09/13 09:29:15;;;;;;;4.40;1.80;;;;;;;20.05;100.00;100690.25;5056726;28;20449;-74
2023/09/13 09:31:42;;;;;;;3.87;1.80;;;;;;;20.07;100.00;100687.94;5057060;28;20845;-74
2023/09/13 09:34:10;;;;;;;6.10;2.50;;;;;;;20.06;100.00;100683.59;5056602;28;20438;-74
2023/09/13 09:36:40;;;;;;;3.83;2.10;;;;;;;20.07;100.00;100680.50;5056674;28;20454;-74
2023/09/13 09:39:08;;;;;;;5.73;1.80;;;;;;;20.12;100.00;100688.44;5056955;28;20930;-74
2023/09/13 09:41:36;;;;;;;7.67;2.30;;;;;;;20.33;100.00;100690.81;5056551;28;20442;-74
2023/09/13 09:44:04;;;;;;;3.43;1.77;;;;;;;20.47;100.00;100692.22;5056417;28;20513;-74
2023/09/13 09:46:32;;;;;;;3.10;1.80;;;;;;;20.50;100.00;100694.28;5057347;28;20901;-74
2023/09/13 09:48:59;;;;;;;4.93;2.37;;;;;;;20.59;100.00;100692.88;5056924;28;20438;-74
2023/09/13 09:51:27;;;;;;;3.40;1.90;;;;;;;20.64;100.00;100700.03;5056716;28;20882;-74
2023/09/13 09:53:53;;;;;;;3.90;1.80;;;;;;;20.74;100.00;100699.44;5056637;28;20529;-74
2023/09/13 09:56:22;;;;;;;3.43;1.50;;;;;;;20.78;100.00;100697.53;5056188;28;20560;-74
2023/09/13 09:58:49;;;;;;;3.53;1.60;;;;;;;20.77;100.00;100706.16;5055967;28;21007;-74
2023/09/13 10:01:18;;;;;;;3.93;1.50;;;;;;;20.81;100.00;100704.28;5056036;28;20517;-74
2023/09/13 10:03:45;;;;;;;3.10;1.77;;;;;;;20.91;100.00;100711.91;5055273;28;20576;-77
2023/09/13 10:06:14;;;;;;;2.67;1.10;;;;;;;20.97;100.00;100706.88;5056360;28;20466;-73
2023/09/13 10:08:42;;;;;;;3.70;1.33;;;;;;;21.05;100.00;100703.09;5056468;28;20508;-71
2023/09/13 10:11:10;;;;;;;2.43;0.83;;;;;;;21.13;100.00;100715.81;5056549;28;20805;-76
2023/09/13 10:13:37;;;;;;;2.63;1.00;;;;;;;21.19;100.00;100711.56;5055888;28;20438;-73
2023/09/13 10:16:17;;;;;;;3.00;1.30;;;;;;;21.16;100.00;100706.78;5056044;28;20550;-73
2023/09/13 10:18:46;;;;;;;2.50;1.00;;;;;;;21.14;100.00;100712.69;5055743;28;20487;-74
2023/09/13 10:21:15;;;;;;;2.50;1.00;;;;;;;21.19;100.00;100722.59;5055698;28;20442;-74
2023/09/13 10:23:44;;;;;;;2.33;0.83;;;;;;;21.27;100.00;100715.22;5055700;28;20450;-74
2023/09/13 10:26:13;;;;;;;3.47;1.30;;;;;;;21.37;100.00;100715.41;5055553;28;20537;-74
2023/09/13 10:28:45;;;;;;;3.47;1.10;;;;;;;21.50;100.00;100717.97;5055788;28;20922;-75
2023/09/13 10:31:19;;;;;;;3.07;1.10;;;;;;;21.73;100.00;100721.44;5057408;28;20903;-76
2023/09/13 10:33:51;;;;;;;2.27;0.70;;;;;;;21.90;100.00;100729.16;5055368;28;20509;-76
2023/09/13 10:36:27;;;;;;;2.50;1.10;;;;;;;21.94;100.00;100734.72;5055442;28;20508;-76
2023/09/13 10:39:08;;;;;;;2.60;1.00;;;;;;;21.91;100.00;100736.28;5055471;28;20426;-76
2023/09/13 10:41:42;;;;;;;2.63;1.00;;;;;;;21.84;100.00;100736.16;5055809;28;20418;-76
2023/09/13 10:44:10;;;;;;;2.40;0.80;;;;;;;21.94;100.00;100744.94;5055432;28;20523;-75
2023/09/13 10:46:42;;;;;;;2.23;0.73;;;;;;;22.09;100.00;100743.94;5056931;28;20458;-74
2023/09/13 10:49:09;;;;;;;2.27;0.67;;;;;;;22.15;99.64;100740.53;5056090;28;20514;-75
2023/09/13 10:51:39;;;;;;;2.83;1.00;;;;;;;22.17;99.86;100738.19;5056108;28;20529;-72
2023/09/13 10:54:06;;;;;;;2.53;0.83;;;;;;;22.13;100.00;100740.13;5055690;28;20523;-73
2023/09/13 10:56:33;;;;;;;2.50;0.80;;;;;;;22.13;100.00;100742.06;5054731;28;20863;-75
2023/09/13 10:59:02;;;;;;;2.20;0.70;;;;;;;22.08;100.00;100737.63;5055424;28;20477;-72
2023/09/13 11:01:29;;;;;;;3.10;0.87;;;;;;;22.21;98.04;100742.94;5055254;28;20446;-73
2023/09/13 11:03:57;;;;;;;3.40;0.90;;;;;;;22.29;99.08;100742.66;5054469;28;21029;-73
2023/09/13 11:06:25;;;;;;;2.60;0.93;;;;;;;22.34;96.89;100755.31;5054942;28;20458;-73
2023/09/13 11:08:52;;;;;;;3.07;1.03;;;;;;;22.21;99.34;100756.75;5054773;28;20438;-73
2023/09/13 11:11:22;;;;;;;2.97;1.17;;;;;;;22.15;98.22;100757.09;5054646;28;20538;-73
2023/09/13 11:13:53;;;;;;;2.27;0.80;;;;;;;22.11;98.78;100767.25;5054984;28;20433;-73
2023/09/13 11:16:20;;;;;;;2.17;0.63;;;;;;;21.91;100.00;100771.31;5054663;28;20492;-74
2023/09/13 11:18:48;;;;;;;2.87;1.03;;;;;;;21.64;100.00;100768.56;5055289;28;20442;-73
2023/09/13 11:21:21;;;;;;;3.03;1.17;;;;;;;21.31;100.00;100780.28;5054768;28;20466;-71